createdAt,value
2018-04-11T00:01:36.255Z,76.72
2018-04-11T00:04:02.138Z,76.75
2018-04-11T00:06:28.007Z,75.98
2018-04-11T00:08:53.904Z,75.45
2018-04-11T00:11:19.783Z,76.53
2018-04-11T00:13:45.655Z,76.85
2018-04-11T00:16:11.561Z,76.34
2018-04-11T00:18:37.430Z,76.48
2018-04-11T00:21:03.295Z,75.97
2018-04-11T00:23:29.202Z,75.41
2018-04-11T00:25:55.091Z,75.78
2018-04-11T00:28:20.950Z,75.08
2018-04-11T00:30:46.850Z,74.35
2018-04-11T00:33:12.711Z,74.12
2018-04-11T00:35:38.572Z,74.23
2018-04-11T00:38:04.543Z,73.65
2018-04-11T00:40:30.388Z,73.54
2018-04-11T00:42:56.265Z,73.45
2018-04-11T00:45:22.163Z,73.69
2018-04-11T00:47:48.068Z,74.05
2018-04-11T00:50:13.940Z,73.85
2018-04-11T00:52:39.858Z,74.45
2018-04-11T00:55:05.711Z,74.32
2018-04-11T00:57:31.596Z,73.84
2018-04-11T00:59:57.515Z,73.94
2018-04-11T01:02:23.374Z,74.79
2018-04-11T01:04:49.227Z,74.31
2018-04-11T01:07:15.131Z,74.46
2018-04-11T01:09:40.991Z,74.32
2018-04-11T01:12:06.867Z,75.11
2018-04-11T01:14:32.783Z,74.89
2018-04-11T01:16:58.659Z,74.91
2018-04-11T01:19:24.520Z,75.31
2018-04-11T01:21:50.428Z,75.24
2018-04-11T01:24:16.296Z,74.52
2018-04-11T01:26:42.159Z,74.28
2018-04-11T01:29:08.067Z,74.62
2018-04-11T01:31:33.935Z,74.81
2018-04-11T01:33:59.795Z,74.55
2018-04-11T01:36:25.709Z,74.42
2018-04-11T01:38:51.651Z,74.77
2018-04-11T01:41:17.508Z,74.53
2018-04-11T01:43:43.398Z,74.66
2018-04-11T01:46:09.271Z,75.09
2018-04-11T01:48:35.136Z,75.04
2018-04-11T01:51:01.139Z,75.68
2018-04-11T01:53:27.008Z,75.64
2018-04-11T01:55:52.867Z,75.66
2018-04-11T01:58:18.796Z,75.69
2018-04-11T02:00:44.672Z,75.50
2018-04-11T02:03:10.607Z,75.85
2018-04-11T02:05:36.533Z,75.58
2018-04-11T02:08:02.417Z,75.63
2018-04-11T02:10:28.291Z,75.81
2018-04-11T02:12:54.186Z,75.90
2018-04-11T02:15:20.159Z,76.27
2018-04-11T02:17:46.033Z,75.79
2018-04-11T02:20:11.944Z,76.04
2018-04-11T02:22:37.803Z,76.25
2018-04-11T02:25:03.679Z,76.19
2018-04-11T02:27:29.683Z,76.11
2018-04-11T02:29:55.535Z,75.85
2018-04-11T02:32:21.487Z,76.26
2018-04-11T02:34:47.404Z,76.00
2018-04-11T02:37:13.255Z,76.23
2018-04-11T02:39:39.223Z,76.60
2018-04-11T02:42:05.137Z,76.49
2018-04-11T02:44:31.055Z,76.44
2018-04-11T02:46:56.936Z,77.00
2018-04-11T02:49:22.864Z,76.41
2018-04-11T02:51:48.817Z,76.78
2018-04-11T02:54:14.688Z,76.98
2018-04-11T02:56:40.662Z,76.88
2018-04-11T02:59:06.552Z,77.02
2018-04-11T03:01:32.439Z,76.99
2018-04-11T03:03:58.465Z,77.03
2018-04-11T03:06:24.323Z,77.50
2018-04-11T03:08:50.238Z,77.53
2018-04-11T03:11:16.199Z,76.89
2018-04-11T03:13:42.225Z,77.35
2018-04-11T03:16:08.170Z,76.90
2018-04-11T03:18:34.096Z,76.84
2018-04-11T03:21:00.044Z,77.04
2018-04-11T03:23:25.903Z,76.80
2018-04-11T03:25:51.827Z,76.55
2018-04-11T03:28:17.762Z,76.87
2018-04-11T03:30:43.847Z,76.20
2018-04-11T03:33:09.829Z,76.92
2018-04-11T03:35:35.687Z,76.75
2018-04-11T03:38:01.543Z,76.92
2018-04-11T03:40:27.708Z,76.99
2018-04-11T03:42:53.582Z,76.89
2018-04-11T03:45:19.499Z,76.97
2018-04-11T03:47:45.411Z,76.53
2018-04-11T03:50:11.289Z,76.81
2018-04-11T03:52:37.261Z,76.89
2018-04-11T03:55:03.156Z,77.60
2018-04-11T03:57:29.077Z,77.15
2018-04-11T03:59:54.953Z,78.22
2018-04-11T04:02:20.872Z,77.59
2018-04-11T04:04:46.879Z,77.13
2018-04-11T04:07:12.768Z,77.34
2018-04-11T04:09:38.731Z,77.20
2018-04-11T04:12:04.600Z,77.04
2018-04-11T04:14:43.234Z,77.23
2018-04-11T04:17:21.509Z,77.17
2018-04-11T04:19:59.791Z,77.68
2018-04-11T04:22:25.668Z,77.87
2018-04-11T04:24:51.563Z,78.35
2018-04-11T04:27:17.580Z,78.58
2018-04-11T04:29:43.432Z,78.63
2018-04-11T04:32:09.356Z,78.66
2018-04-11T04:34:35.257Z,78.59
2018-04-11T04:37:01.140Z,80.17
2018-04-11T04:39:27.095Z,80.80
2018-04-11T04:41:53.038Z,81.61
2018-04-11T04:44:19.052Z,81.79
2018-04-11T04:46:44.935Z,81.16
2018-04-11T04:49:10.859Z,82.09
2018-04-11T04:51:36.885Z,82.52
2018-04-11T04:54:02.745Z,82.65
2018-04-11T04:56:28.754Z,82.77
2018-04-11T04:58:54.629Z,81.59
2018-04-11T05:01:20.516Z,82.54
2018-04-11T05:03:46.540Z,82.50
2018-04-11T05:06:12.423Z,83.16
2018-04-11T05:08:38.357Z,84.38
2018-04-11T05:11:04.280Z,84.82
2018-04-11T05:13:30.570Z,85.26
2018-04-11T05:15:56.560Z,86.27
2018-04-11T05:18:22.492Z,86.91
2018-04-11T05:20:48.395Z,87.26
2018-04-11T05:23:14.262Z,87.24
2018-04-11T05:25:40.175Z,87.70
2018-04-11T05:28:06.126Z,87.33
2018-04-11T05:30:31.986Z,87.83
2018-04-11T05:32:57.941Z,88.03
2018-04-11T05:35:23.799Z,87.97
2018-04-11T05:37:49.648Z,88.08
2018-04-11T05:40:15.811Z,88.08
2018-04-11T05:42:41.658Z,88.28
2018-04-11T05:45:07.567Z,88.29
2018-04-11T05:47:33.505Z,88.56
2018-04-11T05:49:59.351Z,88.20
2018-04-11T05:52:25.303Z,88.28
2018-04-11T05:54:51.199Z,87.80
2018-04-11T05:57:17.094Z,87.71
2018-04-11T05:59:42.951Z,88.41
2018-04-11T06:02:08.851Z,87.80
2018-04-11T06:04:34.807Z,87.54
2018-04-11T06:07:00.665Z,88.38
2018-04-11T06:09:26.607Z,87.52
2018-04-11T06:11:52.467Z,86.07
2018-04-11T06:14:18.337Z,84.16
2018-04-11T06:16:44.373Z,85.20
2018-04-11T06:19:10.228Z,84.92
2018-04-11T06:21:36.145Z,85.11
2018-04-11T06:24:02.055Z,85.24
2018-04-11T06:26:27.911Z,85.39
2018-04-11T06:28:53.867Z,85.16
2018-04-11T06:31:19.755Z,82.89
2018-04-11T06:33:45.697Z,83.51
2018-04-11T06:36:11.638Z,83.81
2018-04-11T06:38:37.555Z,84.29
2018-04-11T06:41:03.495Z,83.62
2018-04-11T06:43:29.371Z,80.19
2018-04-11T06:45:55.320Z,83.22
2018-04-11T06:48:21.214Z,81.66
2018-04-11T06:50:47.058Z,82.88
2018-04-11T06:53:13.054Z,82.32
2018-04-11T06:55:38.899Z,80.98
2018-04-11T06:58:04.831Z,79.94
2018-04-11T07:00:30.741Z,80.90
2018-04-11T07:02:56.587Z,79.96
2018-04-11T07:05:22.455Z,81.37
2018-04-11T07:07:48.363Z,79.21
2018-04-11T07:10:14.219Z,78.40
2018-04-11T07:12:40.079Z,77.55
2018-04-11T07:15:05.974Z,77.47
2018-04-11T07:17:31.820Z,77.76
2018-04-11T07:19:57.804Z,78.13
2018-04-11T07:22:23.696Z,77.05
2018-04-11T07:24:49.588Z,77.21
2018-04-11T07:27:15.451Z,76.55
2018-04-11T07:29:41.354Z,75.08
2018-04-11T07:32:07.216Z,76.17
2018-04-11T07:34:33.071Z,75.80
2018-04-11T07:36:58.964Z,75.54
2018-04-11T07:39:24.825Z,75.93
2018-04-11T07:41:50.670Z,73.53
2018-04-11T07:44:16.596Z,74.33
2018-04-11T07:46:42.460Z,72.96
2018-04-11T07:49:08.322Z,71.91
2018-04-11T07:51:34.220Z,71.92
2018-04-11T07:54:00.140Z,70.11
2018-04-11T07:56:25.991Z,70.49
2018-04-11T07:58:51.902Z,70.47
2018-04-11T08:01:17.772Z,71.07
2018-04-11T08:03:43.632Z,69.80
2018-04-11T08:06:09.547Z,67.55
2018-04-11T08:08:35.415Z,68.93
2018-04-11T08:11:01.270Z,67.28
2018-04-11T08:13:27.195Z,68.27
2018-04-11T08:15:53.135Z,65.38
2018-04-11T08:18:19.011Z,69.21
2018-04-11T08:20:44.935Z,65.61
2018-04-11T08:23:10.817Z,65.48
2018-04-11T08:25:36.672Z,63.63
2018-04-11T08:28:02.578Z,65.16
2018-04-11T08:30:28.438Z,65.04
2018-04-11T08:32:54.312Z,64.02
2018-04-11T08:35:20.214Z,64.22
2018-04-11T08:37:46.079Z,63.82
2018-04-11T08:40:11.960Z,63.57
2018-04-11T08:42:37.889Z,65.29
2018-04-11T08:45:03.759Z,63.21
2018-04-11T08:47:29.629Z,61.53
2018-04-11T08:49:55.543Z,63.24
2018-04-11T08:52:21.403Z,62.62
2018-04-11T08:54:47.320Z,62.66
2018-04-11T08:57:13.231Z,62.29
2018-04-11T08:59:39.082Z,61.75
2018-04-11T09:02:04.952Z,62.20
2018-04-11T09:04:30.867Z,59.67
2018-04-11T09:06:56.739Z,59.75
2018-04-11T09:09:22.612Z,61.00
2018-04-11T09:11:48.515Z,61.19
2018-04-11T09:14:14.395Z,58.80
2018-04-11T09:16:40.256Z,57.14
2018-04-11T09:19:06.175Z,58.55
2018-04-11T09:21:32.051Z,55.00
2018-04-11T09:23:57.924Z,57.09
2018-04-11T09:26:23.857Z,59.16
2018-04-11T09:28:50.211Z,58.69
2018-04-11T09:31:16.080Z,59.09
2018-04-11T09:33:41.988Z,58.86
2018-04-11T09:36:07.851Z,55.80
2018-04-11T09:38:33.721Z,55.34
2018-04-11T09:40:59.624Z,55.10
2018-04-11T09:43:25.493Z,57.83
2018-04-11T09:45:51.371Z,57.07
2018-04-11T09:48:17.307Z,55.21
2018-04-11T09:50:43.176Z,54.77
2018-04-11T09:53:09.039Z,54.63
2018-04-11T09:55:35.016Z,52.62
2018-04-11T09:58:00.881Z,51.48
2018-04-11T10:00:26.783Z,52.30
2018-04-11T10:02:58.847Z,53.02
2018-04-11T10:05:24.710Z,52.25
2018-04-11T10:07:50.581Z,52.64
2018-04-11T10:10:16.516Z,52.90
2018-04-11T10:12:42.388Z,52.84
2018-04-11T10:15:08.259Z,52.44
2018-04-11T10:17:34.171Z,50.39
2018-04-11T10:20:00.048Z,49.66
2018-04-11T10:22:25.948Z,49.61
2018-04-11T10:24:51.898Z,53.12
2018-04-11T10:27:17.768Z,50.02
2018-04-11T10:29:43.819Z,50.25
2018-04-11T10:32:09.721Z,49.17
2018-04-11T10:34:35.599Z,49.54
2018-04-11T10:37:01.476Z,48.18
2018-04-11T10:39:27.381Z,50.43
2018-04-11T10:41:53.238Z,49.90
2018-04-11T10:44:19.133Z,48.63
2018-04-11T10:46:45.085Z,49.87
2018-04-11T10:49:10.956Z,50.98
2018-04-11T10:51:36.823Z,50.24
2018-04-11T10:54:02.748Z,50.49
2018-04-11T10:56:28.692Z,51.22
2018-04-11T10:58:54.561Z,52.90
2018-04-11T11:01:20.567Z,51.74
2018-04-11T11:03:46.437Z,53.57
2018-04-11T11:06:12.321Z,52.77
2018-04-11T11:08:38.215Z,53.14
2018-04-11T11:11:04.088Z,51.94
2018-04-11T11:13:29.977Z,53.29
2018-04-11T11:15:55.897Z,52.04
2018-04-11T11:18:21.775Z,50.70
2018-04-11T11:20:54.589Z,49.97
2018-04-11T11:23:20.508Z,47.09
2018-04-11T11:25:46.410Z,46.60
2018-04-11T11:28:12.279Z,44.04
2018-04-11T11:30:38.204Z,45.80
2018-04-11T11:33:04.075Z,43.52
2018-04-11T11:35:29.971Z,47.01
2018-04-11T11:37:55.885Z,43.19
2018-04-11T11:40:21.743Z,41.81
2018-04-11T11:42:47.619Z,41.41
2018-04-11T11:45:13.546Z,41.49
2018-04-11T11:47:39.425Z,42.77
2018-04-11T11:50:05.338Z,44.74
2018-04-11T11:52:31.244Z,46.36
2018-04-11T11:54:57.124Z,43.60
2018-04-11T11:57:23.079Z,43.71
2018-04-11T11:59:48.997Z,43.32
2018-04-11T12:02:14.903Z,46.66
2018-04-11T12:04:40.776Z,44.35
2018-04-11T12:07:06.693Z,46.67
2018-04-11T12:09:32.656Z,46.61
2018-04-11T12:11:58.524Z,49.16
2018-04-11T12:14:24.444Z,47.00
2018-04-11T12:16:50.333Z,48.96
2018-04-11T12:19:16.203Z,51.34
2018-04-11T12:21:42.211Z,50.16
2018-04-11T12:24:08.082Z,49.43
2018-04-11T12:26:33.960Z,48.25
2018-04-11T12:28:59.884Z,49.69
2018-04-11T12:31:25.798Z,48.58
2018-04-11T12:33:51.739Z,50.86
2018-04-11T12:36:17.650Z,48.13
2018-04-11T12:38:43.519Z,51.01
2018-04-11T12:41:09.392Z,50.84
2018-04-11T12:43:35.320Z,49.84
2018-04-11T12:46:01.271Z,49.04
2018-04-11T12:48:27.144Z,52.67
2018-04-11T12:50:53.060Z,53.00
2018-04-11T12:53:18.942Z,52.85
2018-04-11T12:55:44.822Z,53.06
2018-04-11T12:58:10.856Z,51.88
2018-04-11T13:00:36.735Z,53.45
2018-04-11T13:03:02.593Z,51.31
2018-04-11T13:05:28.540Z,53.11
2018-04-11T13:07:54.409Z,54.04
2018-04-11T13:10:20.367Z,52.13
2018-04-11T13:12:46.288Z,51.63
2018-04-11T13:15:12.152Z,53.77
2018-04-11T13:17:38.029Z,53.18
2018-04-11T13:20:03.935Z,52.29
2018-04-11T13:22:29.887Z,50.08
2018-04-11T13:24:55.786Z,50.96
2018-04-11T13:27:21.703Z,53.04
2018-04-11T13:29:47.580Z,53.68
2018-04-11T13:32:13.447Z,53.39
2018-04-11T13:34:39.567Z,53.59
2018-04-11T13:37:05.448Z,52.84
2018-04-11T13:39:31.316Z,54.52
2018-04-11T13:41:57.238Z,54.00
2018-04-11T13:44:23.115Z,54.67
2018-04-11T13:46:49.127Z,52.95
2018-04-11T13:49:15.044Z,53.36
2018-04-11T13:51:40.911Z,53.74
2018-04-11T13:54:06.779Z,54.68
2018-04-11T13:56:32.682Z,53.08
2018-04-11T13:58:58.638Z,51.57
2018-04-11T14:01:24.552Z,54.32
2018-04-11T14:03:50.459Z,53.83
2018-04-11T14:06:16.336Z,52.82
2018-04-11T14:08:42.212Z,52.87
2018-04-11T14:11:08.231Z,53.44
2018-04-11T14:13:34.133Z,52.47
2018-04-11T14:16:00.003Z,55.60
2018-04-11T14:18:25.924Z,52.60
2018-04-11T14:20:51.796Z,51.85
2018-04-11T14:23:17.871Z,51.87
2018-04-11T14:25:43.830Z,52.89
2018-04-11T14:28:09.729Z,54.17
2018-04-11T14:30:35.620Z,53.25
2018-04-11T14:33:01.626Z,52.38
2018-04-11T14:35:27.597Z,52.90
2018-04-11T14:37:53.486Z,53.79
2018-04-11T14:40:19.719Z,54.75
2018-04-11T14:42:45.645Z,52.87
2018-04-11T14:45:11.556Z,52.67
2018-04-11T14:47:37.564Z,54.38
2018-04-11T14:50:03.467Z,53.26
2018-04-11T14:52:29.363Z,55.04
2018-04-11T14:54:55.276Z,54.25
2018-04-11T14:57:21.151Z,56.55
2018-04-11T14:59:47.095Z,56.64
2018-04-11T15:02:13.004Z,58.24
2018-04-11T15:04:38.883Z,57.14
2018-04-11T15:07:05.024Z,55.28
2018-04-11T15:09:30.955Z,55.71
2018-04-11T15:11:56.935Z,55.69
2018-04-11T15:14:22.831Z,54.77
2018-04-11T15:16:48.972Z,55.08
2018-04-11T15:19:14.839Z,55.61
2018-04-11T15:21:40.770Z,56.67
2018-04-11T15:24:06.819Z,56.74
2018-04-11T15:26:32.699Z,57.64
2018-04-11T15:28:58.555Z,57.72
2018-04-11T15:31:24.760Z,58.52
2018-04-11T15:33:50.630Z,56.92
2018-04-11T15:36:16.588Z,57.45
2018-04-11T15:38:42.503Z,59.04
2018-04-11T15:41:08.384Z,57.39
2018-04-11T15:43:34.287Z,57.37
2018-04-11T15:46:00.223Z,56.70
2018-04-11T15:48:26.183Z,57.13
2018-04-11T15:50:52.058Z,56.77
2018-04-11T15:53:17.976Z,58.06
2018-04-11T15:55:43.848Z,56.90
2018-04-11T15:58:09.720Z,58.15
2018-04-11T16:00:35.756Z,57.58
2018-04-11T16:03:01.644Z,57.35
2018-04-11T16:05:27.524Z,58.16
2018-04-11T16:07:53.438Z,58.34
2018-04-11T16:10:19.308Z,58.45
2018-04-11T16:12:45.278Z,58.03
2018-04-11T16:15:11.187Z,58.92
2018-04-11T16:17:37.055Z,58.79
2018-04-11T16:20:02.970Z,59.51
2018-04-11T16:22:28.882Z,59.60
2018-04-11T16:24:54.847Z,60.13
2018-04-11T16:27:20.725Z,60.57
2018-04-11T16:29:46.675Z,60.41
2018-04-11T16:32:12.631Z,61.22
2018-04-11T16:34:38.609Z,61.71
2018-04-11T16:37:04.602Z,61.29
2018-04-11T16:39:30.472Z,61.54
2018-04-11T16:41:56.362Z,61.54
2018-04-11T16:44:22.273Z,61.38
2018-04-11T16:46:48.187Z,62.25
2018-04-11T16:49:14.111Z,62.55
2018-04-11T16:51:40.031Z,62.79
2018-04-11T16:54:05.900Z,63.48
2018-04-11T16:56:31.769Z,62.93
2018-04-11T16:58:57.679Z,62.75
2018-04-11T17:01:23.670Z,62.71
2018-04-11T17:03:49.568Z,63.86
2018-04-11T17:06:15.487Z,65.03
2018-04-11T17:08:41.371Z,64.41
2018-04-11T17:11:07.254Z,65.07
2018-04-11T17:13:33.241Z,64.04
2018-04-11T17:15:59.120Z,65.27
2018-04-11T17:18:25.011Z,66.08
2018-04-11T17:21:03.139Z,66.41
2018-04-11T17:23:41.355Z,66.60
2018-04-11T17:26:19.676Z,66.85
2018-04-11T17:28:57.752Z,66.86
2018-04-11T17:31:23.695Z,66.64
2018-04-11T17:33:49.668Z,67.30
2018-04-11T17:36:15.650Z,67.45
2018-04-11T17:38:41.603Z,67.61
2018-04-11T17:41:07.468Z,67.44
2018-04-11T17:43:33.336Z,68.55
2018-04-11T17:45:59.340Z,69.20
2018-04-11T17:48:25.208Z,69.33
2018-04-11T17:50:51.148Z,68.84
2018-04-11T17:53:17.075Z,69.12
2018-04-11T17:55:43.020Z,69.41
2018-04-11T17:58:09.003Z,69.60
2018-04-11T18:00:34.947Z,69.86
2018-04-11T18:03:00.915Z,70.19
2018-04-11T18:05:26.795Z,69.90
2018-04-11T18:07:52.813Z,70.17
2018-04-11T18:10:18.733Z,70.28
2018-04-11T18:12:44.615Z,69.46
2018-04-11T18:15:10.667Z,70.76
2018-04-11T18:17:36.532Z,71.12
2018-04-11T18:20:02.450Z,71.26
2018-04-11T18:22:28.399Z,71.51
2018-04-11T18:24:54.331Z,71.92
2018-04-11T18:27:20.224Z,72.14
2018-04-11T18:29:46.155Z,71.54
2018-04-11T18:32:12.078Z,71.65
2018-04-11T18:34:37.941Z,71.94
2018-04-11T18:37:03.867Z,72.72
2018-04-11T18:39:29.817Z,72.25
2018-04-11T18:41:55.676Z,72.52
2018-04-11T18:44:21.584Z,73.25
2018-04-11T18:46:47.460Z,73.16
2018-04-11T18:49:13.333Z,73.14
2018-04-11T18:51:39.234Z,73.44
2018-04-11T18:54:05.128Z,73.87
2018-04-11T18:56:31.083Z,74.02
2018-04-11T18:58:57.043Z,74.43
2018-04-11T19:01:23.242Z,74.41
2018-04-11T19:03:49.112Z,74.42
2018-04-11T19:06:15.025Z,74.36
2018-04-11T19:08:41.226Z,74.72
2018-04-11T19:11:07.204Z,74.84
2018-04-11T19:13:33.132Z,75.11
2018-04-11T19:15:59.227Z,75.11
2018-04-11T19:18:25.107Z,75.20
2018-04-11T19:20:51.042Z,75.41
2018-04-11T19:23:17.206Z,75.61
2018-04-11T19:25:43.887Z,75.70
2018-04-11T19:28:09.796Z,76.14
2018-04-11T19:30:35.682Z,75.86
2018-04-11T19:33:01.552Z,75.96
2018-04-11T19:35:27.472Z,76.02
2018-04-11T19:37:53.679Z,75.84
2018-04-11T19:40:19.584Z,76.02
2018-04-11T19:42:45.479Z,76.60
2018-04-11T19:45:11.360Z,76.61
2018-04-11T19:47:37.635Z,77.30
2018-04-11T19:50:03.589Z,77.24
2018-04-11T19:52:29.485Z,76.90
2018-04-11T19:54:55.351Z,77.46
2018-04-11T19:57:21.260Z,77.85
2018-04-11T19:59:47.153Z,77.60
2018-04-11T20:02:13.015Z,77.76
2018-04-11T20:04:38.955Z,77.97
2018-04-11T20:07:04.840Z,77.82
2018-04-11T20:09:30.721Z,77.79
2018-04-11T20:11:56.733Z,78.09
2018-04-11T20:14:22.624Z,78.15
2018-04-11T20:16:48.507Z,78.04
2018-04-11T20:19:14.471Z,78.32
2018-04-11T20:21:40.332Z,78.41
2018-04-11T20:24:07.175Z,78.54
2018-04-11T20:26:33.087Z,78.29
2018-04-11T20:28:58.968Z,78.49
2018-04-11T20:31:24.831Z,78.72
2018-04-11T20:33:50.767Z,78.84
2018-04-11T20:36:16.724Z,78.93
2018-04-11T20:38:42.587Z,78.92
2018-04-11T20:41:08.506Z,79.20
2018-04-11T20:43:34.367Z,79.18
2018-04-11T20:46:00.246Z,79.18
2018-04-11T20:48:26.596Z,78.90
2018-04-11T20:50:52.462Z,79.15
2018-04-11T20:53:18.315Z,79.37
2018-04-11T20:55:44.226Z,79.38
2018-04-11T20:58:10.113Z,79.52
2018-04-11T21:00:36.069Z,79.21
2018-04-11T21:03:02.020Z,79.08
2018-04-11T21:05:27.885Z,79.27
2018-04-11T21:07:53.751Z,79.20
2018-04-11T21:10:19.669Z,79.14
2018-04-11T21:12:46.423Z,79.41
2018-04-11T21:15:12.279Z,79.20
2018-04-11T21:17:38.183Z,79.03
2018-04-11T21:20:04.060Z,78.89
2018-04-11T21:22:29.924Z,78.72
2018-04-11T21:24:55.916Z,78.94
2018-04-11T21:27:21.789Z,79.16
2018-04-11T21:29:47.745Z,79.10
2018-04-11T21:32:13.656Z,78.91
2018-04-11T21:34:39.512Z,79.01
2018-04-11T21:37:05.481Z,78.87
2018-04-11T21:39:31.392Z,79.26
2018-04-11T21:41:57.264Z,79.36
2018-04-11T21:44:23.167Z,79.27
2018-04-11T21:46:49.084Z,79.31
2018-04-11T21:49:15.023Z,79.48
2018-04-11T21:51:40.903Z,79.45
2018-04-11T21:54:07.200Z,79.61
2018-04-11T21:56:33.068Z,79.24
2018-04-11T21:58:58.958Z,79.52
2018-04-11T22:01:24.950Z,80.10
2018-04-11T22:03:50.907Z,79.79
2018-04-11T22:06:16.767Z,79.99
2018-04-11T22:08:42.663Z,79.92
2018-04-11T22:11:08.540Z,80.10
2018-04-11T22:13:34.490Z,80.19
2018-04-11T22:16:00.403Z,79.82
2018-04-11T22:18:26.262Z,79.96
2018-04-11T22:20:52.136Z,80.20
2018-04-11T22:23:18.049Z,80.20
2018-04-11T22:25:44.096Z,80.28
2018-04-11T22:28:10.077Z,80.29
2018-04-11T22:30:36.019Z,80.76
2018-04-11T22:33:01.867Z,80.53
2018-04-11T22:35:27.749Z,80.06
2018-04-11T22:37:53.751Z,80.41
2018-04-11T22:40:19.624Z,80.74
2018-04-11T22:42:45.492Z,80.71
2018-04-11T22:45:11.441Z,80.73
2018-04-11T22:47:37.316Z,80.74
2018-04-11T22:50:03.287Z,80.90
2018-04-11T22:52:29.189Z,80.94
2018-04-11T22:54:55.075Z,81.04
2018-04-11T22:57:20.936Z,81.54
2018-04-11T22:59:46.856Z,81.62
2018-04-11T23:02:12.838Z,81.24
2018-04-11T23:04:38.717Z,81.75
2018-04-11T23:07:04.647Z,81.54
2018-04-11T23:09:30.523Z,81.46
2018-04-11T23:11:56.385Z,81.69
2018-04-11T23:14:22.388Z,81.09
2018-04-11T23:16:48.271Z,81.55
2018-04-11T23:19:14.224Z,81.74
2018-04-11T23:21:40.136Z,81.59
2018-04-11T23:24:06.016Z,81.94
2018-04-11T23:26:31.971Z,81.37
2018-04-11T23:28:57.879Z,81.66
2018-04-11T23:31:23.751Z,81.97
2018-04-11T23:33:49.625Z,81.89
2018-04-11T23:36:15.516Z,82.14
2018-04-11T23:38:41.472Z,82.07
2018-04-11T23:41:07.336Z,82.34
2018-04-11T23:43:33.254Z,82.24
2018-04-11T23:45:59.136Z,82.32
2018-04-11T23:48:24.996Z,82.29
2018-04-11T23:50:50.984Z,82.33
2018-04-11T23:53:16.835Z,82.56
2018-04-11T23:55:42.686Z,82.11
2018-04-11T23:58:08.587Z,82.19
